This is the latest recevied weather packets stored in our database for station/object KM4CNW. If no packets are shown the sender has not sent any weather packets the latest 10 day(s).
| Time | Temp. | Humidity | Pressure | Rain* | Wind** | Luminosity | Snow |
|---|---|---|---|---|---|---|---|
| 1777596335 | 15.56° C | 54% | 1005.5 hPa | 0 mm | - | 0 W/m² | - |
| 1777596034 | 15.56° C | 51% | 1005.5 hPa | 0 mm | - | 0 W/m² | - |
| 1777595733 | 16.11° C | 52% | 1005.2 hPa | 0 mm | - | 0 W/m² | - |
| 1777595429 | 16.11° C | 53% | 1005.3 hPa | 0 mm | - | 0 W/m² | - |
| 1777595126 | 16.67° C | 53% | 1005 hPa | 0 mm | - | 0 W/m² | - |
| 1777594822 | 17.22° C | 50% | 1005.2 hPa | 0 mm | - | 0 W/m² | - |
| 1777594518 | 17.78° C | 47% | 1005.1 hPa | 0 mm | - | 1 W/m² | - |
| 1777594215 | 17.78° C | 46% | 1004.7 hPa | 0 mm | - | 2 W/m² | - |
| 1777593910 | 18.33° C | 41% | 1005 hPa | 0 mm | - | 3 W/m² | - |
| 1777593607 | 18.89° C | 40% | 1004.7 hPa | 0 mm | - | 4 W/m² | - |
| 1777593302 | 19.44° C | 39% | 1004.5 hPa | 0 mm | - | 7 W/m² | - |
| 1777592997 | 20° C | 37% | 1004.5 hPa | 0 mm | - | 9 W/m² | - |
| 1777592691 | 20° C | 36% | 1004.5 hPa | 0 mm | - | 14 W/m² | - |
| 1777592387 | 20° C | 35% | 1004.4 hPa | 0 mm | - | 18 W/m² | - |
| 1777592083 | 20.56° C | 34% | 1004.5 hPa | 0 mm | - | 19 W/m² | - |
| 1777591781 | 20.56° C | 35% | 1004.3 hPa | 0 mm | - | 22 W/m² | - |
| 1777591476 | 20.56° C | 33% | 1004.5 hPa | 0 mm | - | 32 W/m² | - |
| 1777591172 | 20.56° C | 34% | 1004.3 hPa | 0 mm | - | 33 W/m² | - |
| 1777590867 | 21.11° C | 35% | 1004.2 hPa | 0 mm | - | 33 W/m² | - |
| 1777590564 | 21.11° C | 33% | 1004.2 hPa | 0 mm | - | 37 W/m² | - |
| 1777590260 | 21.67° C | 34% | 1004.1 hPa | 0 mm | - | 40 W/m² | - |
| 1777589958 | 21.67° C | 34% | 1004.1 hPa | 0 mm | - | 37 W/m² | - |
| 1777589654 | 21.67° C | 33% | 1004 hPa | 0 mm | - | 47 W/m² | - |
| 1777589351 | 22.22° C | 33% | 1004 hPa | 0 mm | - | 60 W/m² | - |
| 1777589048 | 22.22° C | 33% | 1003.9 hPa | 0 mm | - | 75 W/m² | - |
* Rain latest hour (hover to see other rain measurements)
** Current wind speed in m/s (hover to see current wind gust speed)